createdAt,value
2022-10-17T00:05:09.011Z,96584.63
2022-10-17T00:15:12.462Z,96597.28
2022-10-17T00:25:16.235Z,96591.00
2022-10-17T00:35:18.998Z,96596.25
2022-10-17T00:45:25.847Z,96609.75
2022-10-17T00:55:29.590Z,96602.31
2022-10-17T01:05:33.462Z,96600.25
2022-10-17T01:15:41.870Z,96603.69
2022-10-17T01:25:53.424Z,96597.84
2022-10-17T01:36:03.235Z,96600.59
2022-10-17T01:46:11.476Z,96590.50
2022-10-17T01:56:16.308Z,96598.34
2022-10-17T02:06:18.782Z,96587.41
2022-10-17T02:16:28.658Z,96577.44
2022-10-17T02:26:34.684Z,96594.97
2022-10-17T02:36:40.611Z,96593.16
2022-10-17T02:46:43.772Z,96610.63
2022-10-17T02:56:51.532Z,96608.19
2022-10-17T03:06:54.175Z,96619.09
2022-10-17T03:16:57.985Z,96623.63
2022-10-17T03:27:00.437Z,96629.69
2022-10-17T03:37:04.224Z,96645.66
2022-10-17T03:47:09.201Z,96645.28
2022-10-17T03:57:15.660Z,96643.91
2022-10-17T04:07:18.111Z,96651.34
2022-10-17T04:17:21.876Z,96654.13
2022-10-17T04:27:24.360Z,96664.88
2022-10-17T04:37:29.811Z,96673.34
2022-10-17T04:47:32.185Z,96671.41
2022-10-17T04:57:36.813Z,96678.13
2022-10-17T05:07:44.846Z,96666.97
2022-10-17T05:17:48.569Z,96667.69
2022-10-17T05:27:50.944Z,96670.47
2022-10-17T05:37:54.692Z,96660.78
2022-10-17T05:47:57.070Z,96675.59
2022-10-17T05:58:02.045Z,96683.72
2022-10-17T06:08:04.467Z,96695.50
2022-10-17T06:18:08.195Z,96700.25
2022-10-17T06:28:11.107Z,96714.00
2022-10-17T06:38:14.937Z,96726.84
2022-10-17T06:48:17.391Z,96747.63
2022-10-17T06:58:21.235Z,96762.75
2022-10-17T07:08:23.984Z,96772.66
2022-10-17T07:18:27.746Z,96785.13
2022-10-17T07:28:30.260Z,96794.56
2022-10-17T07:38:34.519Z,96804.66
2022-10-17T07:48:37.057Z,96820.53
2022-10-17T07:58:40.896Z,96825.19
2022-10-17T08:08:43.402Z,96815.22
2022-10-17T08:18:47.143Z,96823.78
2022-10-17T08:28:49.866Z,96834.47
2022-10-17T08:38:53.685Z,96841.84
2022-10-17T08:48:58.208Z,96832.22
2022-10-17T08:59:02.002Z,96846.22
2022-10-17T09:09:13.936Z,96847.16
2022-10-17T09:19:20.577Z,96833.34
2022-10-17T09:29:24.035Z,96846.00
2022-10-17T09:39:31.719Z,96848.97
2022-10-17T09:49:35.322Z,96841.00
2022-10-17T09:59:39.967Z,96835.72
2022-10-17T10:09:47.088Z,96847.38
2022-10-17T10:19:52.268Z,96846.28
2022-10-17T10:29:54.810Z,96851.88
2022-10-17T10:39:59.548Z,96873.13
2022-10-17T10:50:10.265Z,96860.28
2022-10-17T11:00:16.533Z,96867.09
2022-10-17T11:10:23.078Z,96867.41
2022-10-17T11:20:31.480Z,96865.03
2022-10-17T11:30:40.717Z,96855.44
2022-10-17T11:40:46.502Z,96857.97
2022-10-17T12:01:22.723Z,96859.47
2022-10-17T12:11:34.446Z,96860.31
2022-10-17T12:21:54.866Z,96845.03
2022-10-17T12:32:10.742Z,96841.59
2022-10-17T12:42:47.479Z,96836.03
2022-10-17T12:52:57.926Z,96843.19
2022-10-17T13:03:05.794Z,96839.31
2022-10-17T13:13:13.046Z,96834.34
2022-10-17T13:23:24.229Z,96844.34
2022-10-17T13:33:32.603Z,96853.81
2022-10-17T13:43:36.366Z,96877.31
2022-10-17T13:53:41.232Z,96865.25
2022-10-17T14:03:49.139Z,96855.00
2022-10-17T14:13:55.880Z,96862.78
2022-10-17T14:24:16.228Z,96858.84
2022-10-17T14:34:22.518Z,96868.28
2022-10-17T14:44:27.928Z,96864.06
2022-10-17T14:54:30.406Z,96864.25
2022-10-17T15:04:34.420Z,96865.81
2022-10-17T15:14:36.843Z,96878.53
2022-10-17T15:24:40.653Z,96878.09
2022-10-17T15:34:43.067Z,96877.22
2022-10-17T15:44:49.674Z,96868.31
2022-10-17T15:54:52.098Z,96879.97
2022-10-17T16:04:56.238Z,96881.78
2022-10-17T16:14:58.798Z,96874.28
2022-10-17T16:25:09.332Z,96882.84
2022-10-17T16:35:15.486Z,96904.19
2022-10-17T16:45:20.384Z,96908.00
2022-10-17T16:55:22.853Z,96911.84
2022-10-17T17:05:26.629Z,96923.53
2022-10-17T17:15:29.033Z,96931.16
2022-10-17T17:25:34.848Z,96935.06
2022-10-17T17:35:39.589Z,96930.22
2022-10-17T17:45:45.321Z,96940.06
2022-10-17T17:55:47.834Z,96952.81
2022-10-17T18:05:51.731Z,96969.88
2022-10-17T18:15:57.915Z,96983.41
2022-10-17T18:26:01.796Z,96990.34
2022-10-17T18:36:07.069Z,96986.53
2022-10-17T18:46:14.775Z,96990.06
2022-10-17T18:56:18.172Z,97001.66
2022-10-17T19:06:22.727Z,97003.75
2022-10-17T19:16:26.253Z,97002.88
2022-10-17T19:26:31.165Z,96989.78
2022-10-17T19:36:34.901Z,97016.19
2022-10-17T19:46:39.122Z,97004.53
2022-10-17T19:56:43.343Z,97008.47
2022-10-17T20:06:47.138Z,96996.13
2022-10-17T20:16:52.374Z,97004.19
2022-10-17T20:26:56.437Z,97016.22
2022-10-17T20:36:58.953Z,97030.38
2022-10-17T20:47:03.443Z,97029.78
2022-10-17T20:57:07.365Z,97023.09
2022-10-17T21:07:11.145Z,97022.69
2022-10-17T21:17:13.594Z,97027.81
2022-10-17T21:27:18.463Z,97043.22
2022-10-17T21:37:20.888Z,97030.94
2022-10-17T21:47:27.545Z,97026.72
2022-10-17T21:57:30.719Z,97023.41
2022-10-17T22:07:35.160Z,97030.00
2022-10-17T22:17:37.623Z,97021.97
2022-10-17T22:27:42.529Z,97023.66
2022-10-17T22:37:44.931Z,97024.78
2022-10-17T22:47:48.781Z,97016.38
2022-10-17T22:57:51.191Z,97022.47
2022-10-17T23:07:54.933Z,97006.13
2022-10-17T23:17:57.347Z,97000.19
2022-10-17T23:28:01.200Z,96983.81
2022-10-17T23:38:03.705Z,96997.34
2022-10-17T23:48:07.682Z,96984.66
2022-10-17T23:58:10.082Z,96985.66
